Time;durP1;ratioP1;P1;durP2;ratioP2;P2;SDS_P1;SDS_P2;PMS_P1;PMS_P2;Temp;Humidity;BMP_temperature;BMP_pressure;BME280_temperature;BME280_humidity;BME280_pressure;Samples;Min_cycle;Max_cycle;Signal;HPM_P1;HPM_P2
2021/06/06 00:00:32;;;;;;;5.20;3.40;;;17.10;53.30;;;;;;5070505;28;20044;-75
2021/06/06 00:02:59;;;;;;;6.38;3.47;;;17.10;55.30;;;;;;5065935;28;20501;-78
2021/06/06 00:05:41;;;;;;;6.43;3.65;;;17.10;54.70;;;;;;5071782;28;20020;-82
2021/06/06 00:08:07;;;;;;;5.93;3.63;;;17.00;56.00;;;;;;5072551;28;20020;-78
2021/06/06 00:10:33;;;;;;;6.93;3.55;;;17.00;54.40;;;;;;5076227;28;20286;-77
2021/06/06 00:12:59;;;;;;;8.13;4.03;;;17.00;54.30;;;;;;5076254;28;20025;-81
2021/06/06 00:15:25;;;;;;;10.00;5.85;;;17.00;54.90;;;;;;5069647;28;20021;-82
2021/06/06 00:17:51;;;;;;;9.27;5.18;;;17.00;54.80;;;;;;5070961;28;20040;-75
2021/06/06 00:20:17;;;;;;;10.13;5.15;;;16.90;55.60;;;;;;5064304;28;20029;-77
2021/06/06 00:22:43;;;;;;;7.70;4.03;;;16.90;54.00;;;;;;5070120;28;20040;-79
2021/06/06 00:25:11;;;;;;;8.68;4.00;;;16.90;55.00;;;;;;5066357;28;20403;-75
2021/06/06 00:27:37;;;;;;;15.60;9.02;;;16.90;53.50;;;;;;5071723;28;20508;-78
2021/06/06 00:30:07;;;;;;;10.60;7.55;;;16.80;54.90;;;;;;5073878;28;20035;-73
2021/06/06 00:32:33;;;;;;;12.50;6.65;;;16.80;55.40;;;;;;5073089;28;20398;-84
2021/06/06 00:34:59;;;;;;;10.07;4.68;;;16.80;54.40;;;;;;5069393;28;20032;-83
2021/06/06 00:37:25;;;;;;;11.38;6.47;;;16.80;55.40;;;;;;5073284;28;20490;-83
2021/06/06 00:39:51;;;;;;;13.57;7.90;;;16.70;54.10;;;;;;5071934;28;20036;-83
2021/06/06 00:42:20;;;;;;;10.35;6.55;;;16.70;53.90;;;;;;5073641;28;20024;-80
2021/06/06 00:44:47;;;;;;;7.22;4.82;;;16.70;54.90;;;;;;5075339;28;20027;-75
2021/06/06 00:47:13;;;;;;;8.60;4.28;;;16.60;54.10;;;;;;5071873;28;20477;-81
2021/06/06 00:49:39;;;;;;;8.68;4.63;;;16.60;53.30;;;;;;5073271;28;20082;-79
2021/06/06 00:52:06;;;;;;;7.68;3.80;;;16.50;53.20;;;;;;5073848;28;20103;-81
2021/06/06 00:54:39;;;;;;;7.65;4.18;;;16.50;52.80;;;;;;5073317;28;20024;-75
2021/06/06 00:57:22;;;;;;;7.00;3.40;;;16.50;53.20;;;;;;5071177;28;20035;-81
2021/06/06 01:00:24;;;;;;;6.03;3.63;;;16.50;53.50;;;;;;5076464;28;20820;-80
2021/06/06 01:02:50;;;;;;;7.95;3.47;;;16.50;52.80;;;;;;5073514;28;20032;-75
2021/06/06 01:05:29;;;;;;;6.30;3.53;;;16.40;53.40;;;;;;5075721;28;20112;-74
2021/06/06 01:07:56;;;;;;;8.85;3.67;;;16.40;52.70;;;;;;5091675;28;20025;-74
2021/06/06 01:10:23;;;;;;;6.03;3.55;;;16.30;52.60;;;;;;5063279;28;20021;-73
2021/06/06 01:12:56;;;;;;;7.75;3.33;;;16.40;53.30;;;;;;5069773;28;20043;-78
2021/06/06 01:15:38;;;;;;;6.65;4.03;;;16.30;53.00;;;;;;5073473;28;20025;-72
2021/06/06 01:18:10;;;;;;;10.07;5.50;;;16.30;52.40;;;;;;5074594;28;20017;-74
2021/06/06 01:20:51;;;;;;;9.20;6.32;;;16.20;52.60;;;;;;5088840;28;20054;-75
2021/06/06 01:23:54;;;;;;;8.93;5.80;;;16.20;52.30;;;;;;5078754;28;20493;-72
2021/06/06 01:26:34;;;;;;;11.93;6.15;;;16.20;52.20;;;;;;5078380;28;20051;-75
2021/06/06 01:29:03;;;;;;;11.85;4.68;;;16.10;52.10;;;;;;5073037;28;20095;-76
2021/06/06 01:31:31;;;;;;;13.38;7.53;;;16.10;53.00;;;;;;5078880;28;20032;-76
2021/06/06 01:34:02;;;;;;;42.47;21.73;;;16.10;55.50;;;;;;5072527;28;20057;-75
2021/06/06 01:36:33;;;;;;;34.72;20.23;;;16.00;55.60;;;;;;5077036;28;20032;-77
2021/06/06 01:39:05;;;;;;;25.30;14.18;;;16.00;53.80;;;;;;5074850;28;20086;-76
2021/06/06 01:41:36;;;;;;;18.50;11.45;;;16.00;53.30;;;;;;5073316;28;20016;-76
2021/06/06 01:44:10;;;;;;;15.48;8.88;;;16.00;52.90;;;;;;5073021;28;20037;-77
2021/06/06 01:46:46;;;;;;;11.85;6.32;;;16.00;52.90;;;;;;5073009;28;20017;-77
2021/06/06 01:49:15;;;;;;;10.90;5.38;;;15.90;52.90;;;;;;5073587;28;20032;-80
2021/06/06 01:51:45;;;;;;;8.95;4.93;;;15.90;53.00;;;;;;5076391;28;20103;-80
2021/06/06 01:54:14;;;;;;;10.20;3.95;;;15.90;52.80;;;;;;5078723;28;20031;-77
2021/06/06 01:56:44;;;;;;;7.90;3.88;;;15.80;52.80;;;;;;5079307;28;20040;-76
2021/06/06 01:59:17;;;;;;;9.50;4.75;;;15.80;52.90;;;;;;5077664;28;20028;-76
2021/06/06 02:01:43;;;;;;;11.98;5.25;;;15.80;53.70;;;;;;5065166;28;20032;-76
2021/06/06 02:04:09;;;;;;;11.93;7.13;;;15.80;55.30;;;;;;5073314;28;20510;-76
2021/06/06 02:06:45;;;;;;;10.43;6.32;;;15.70;54.30;;;;;;5078960;28;20021;-73
2021/06/06 02:09:16;;;;;;;9.95;5.35;;;15.70;53.80;;;;;;5078461;28;20025;-73
2021/06/06 02:11:47;;;;;;;8.38;4.78;;;15.70;53.40;;;;;;5078956;28;20096;-75
2021/06/06 02:14:18;;;;;;;8.27;4.10;;;15.70;53.30;;;;;;5076356;28;20028;-72
2021/06/06 02:16:54;;;;;;;6.50;3.55;;;15.60;54.00;;;;;;5078318;28;20025;-76
2021/06/06 02:19:24;;;;;;;8.90;4.20;;;15.60;54.90;;;;;;5068489;28;20029;-80
2021/06/06 02:21:55;;;;;;;9.43;4.30;;;15.50;54.80;;;;;;5086877;28;20036;-78
2021/06/06 02:24:21;;;;;;;19.88;11.20;;;15.60;54.70;;;;;;5068328;28;20111;-76
2021/06/06 02:26:52;;;;;;;26.05;14.40;;;15.60;54.50;;;;;;5077045;28;20495;-75
2021/06/06 02:29:32;;;;;;;21.40;10.82;;;15.60;55.90;;;;;;5076586;28;20052;-76
2021/06/06 02:32:08;;;;;;;13.48;7.53;;;15.60;55.10;;;;;;5070489;28;20021;-78
2021/06/06 02:34:50;;;;;;;12.32;6.07;;;15.60;54.50;;;;;;5075744;28;20084;-80
2021/06/06 02:37:25;;;;;;;9.30;5.40;;;15.60;54.20;;;;;;5075011;28;20502;-80
2021/06/06 02:39:55;;;;;;;8.38;4.03;;;15.70;54.20;;;;;;5075964;28;20039;-80
2021/06/06 02:42:24;;;;;;;5.40;3.60;;;15.70;54.70;;;;;;5076681;28;20399;-78
2021/06/06 02:45:12;;;;;;;7.60;3.63;;;15.70;55.10;;;;;;5069450;28;20036;-78
2021/06/06 02:47:39;;;;;;;7.38;4.00;;;15.70;55.60;;;;;;5070554;28;20170;-78
2021/06/06 02:50:20;;;;;;;6.45;3.28;;;15.70;55.00;;;;;;5072295;28;20491;-80
2021/06/06 02:52:51;;;;;;;5.63;3.33;;;15.70;54.60;;;;;;5068421;28;20080;-80
2021/06/06 02:55:18;;;;;;;6.47;3.58;;;15.70;54.60;;;;;;5071005;28;20029;-80
2021/06/06 02:57:56;;;;;;;5.70;3.05;;;15.70;54.60;;;;;;5071100;28;20021;-80
2021/06/06 03:00:43;;;;;;;7.07;3.13;;;15.60;54.20;;;;;;5075158;28;20029;-80
2021/06/06 03:03:15;;;;;;;6.15;3.15;;;15.60;54.80;;;;;;5087520;28;20028;-79
2021/06/06 03:05:43;;;;;;;5.00;2.85;;;15.50;54.40;;;;;;5071345;28;20028;-80
2021/06/06 03:08:11;;;;;;;6.72;2.80;;;15.50;54.20;;;;;;5074435;28;20031;-79
2021/06/06 03:10:39;;;;;;;5.03;2.97;;;15.50;54.30;;;;;;5067847;28;20056;-80
2021/06/06 03:13:33;;;;;;;7.20;3.40;;;15.50;54.00;;;;;;5067091;28;20020;-80
2021/06/06 03:16:01;;;;;;;5.00;3.33;;;15.40;54.30;;;;;;5063800;28;20051;-82
2021/06/06 03:18:30;;;;;;;5.45;3.10;;;15.40;54.30;;;;;;5075248;28;20021;-80
2021/06/06 03:21:22;;;;;;;7.10;3.53;;;15.40;56.00;;;;;;5076398;28;20035;-80
2021/06/06 03:23:57;;;;;;;7.80;3.92;;;15.30;57.70;;;;;;5065642;28;20628;-80
2021/06/06 03:26:24;;;;;;;5.70;3.42;;;15.30;59.00;;;;;;5067130;28;20021;-80
2021/06/06 03:28:51;;;;;;;7.43;4.32;;;15.20;58.10;;;;;;5068912;28;20702;-80
2021/06/06 03:31:26;;;;;;;7.10;3.95;;;15.20;59.90;;;;;;5066647;28;20020;-80
2021/06/06 03:33:55;;;;;;;6.72;4.30;;;15.10;59.90;;;;;;5063961;28;20146;-80
2021/06/06 03:36:26;;;;;;;8.10;3.75;;;15.10;59.10;;;;;;5075095;28;20025;-80
2021/06/06 03:38:53;;;;;;;8.57;4.32;;;15.10;59.10;;;;;;5072921;28;20021;-80
2021/06/06 03:41:20;;;;;;;7.43;4.38;;;15.00;59.80;;;;;;5068418;28;20066;-80
2021/06/06 03:43:46;;;;;;;8.13;4.53;;;15.00;59.10;;;;;;5063305;28;20024;-80
2021/06/06 03:46:12;;;;;;;7.75;4.35;;;15.00;57.90;;;;;;5072127;28;20039;-80
2021/06/06 03:48:40;;;;;;;7.90;4.25;;;14.90;57.30;;;;;;5072256;28;20428;-80
2021/06/06 03:51:06;;;;;;;7.35;3.83;;;14.90;56.30;;;;;;5066383;28;20100;-80
2021/06/06 03:53:32;;;;;;;8.00;3.58;;;14.90;57.00;;;;;;5064009;28;20027;-80
2021/06/06 03:55:58;;;;;;;5.38;4.28;;;14.90;56.50;;;;;;5073112;28;20028;-80
2021/06/06 03:58:24;;;;;;;5.65;4.03;;;14.90;55.90;;;;;;5068385;28;20444;-80
2021/06/06 04:00:51;;;;;;;7.18;4.72;;;14.80;56.50;;;;;;5060975;28;20028;-80
2021/06/06 04:03:18;;;;;;;6.85;4.00;;;14.80;55.60;;;;;;5065431;28;20021;-80
2021/06/06 04:05:45;;;;;;;6.93;4.13;;;14.80;55.80;;;;;;5073076;28;20028;-80
2021/06/06 04:08:11;;;;;;;6.80;4.55;;;14.80;55.60;;;;;;5074004;28;20022;-80
2021/06/06 04:10:38;;;;;;;7.55;4.70;;;14.80;56.00;;;;;;5062275;28;20029;-80
2021/06/06 04:13:04;;;;;;;9.48;4.50;;;14.70;55.60;;;;;;5067951;28;20075;-80
2021/06/06 04:15:30;;;;;;;6.43;4.03;;;14.70;55.30;;;;;;5070408;28;20028;-80
2021/06/06 04:17:56;;;;;;;6.32;4.10;;;14.70;55.60;;;;;;5061642;28;20021;-80
2021/06/06 04:20:23;;;;;;;6.75;4.25;;;14.70;55.50;;;;;;5065068;28;20029;-80
2021/06/06 04:22:49;;;;;;;6.82;3.58;;;14.70;55.30;;;;;;5063139;28;20029;-80
2021/06/06 04:25:17;;;;;;;6.97;3.92;;;14.70;55.60;;;;;;5071804;28;20024;-80
2021/06/06 04:27:44;;;;;;;6.05;3.58;;;14.60;55.10;;;;;;5076052;28;20070;-80
2021/06/06 04:30:12;;;;;;;7.28;4.00;;;14.60;55.10;;;;;;5066225;28;20033;-80
2021/06/06 04:32:38;;;;;;;6.88;3.58;;;14.60;55.00;;;;;;5067652;28;20108;-80
2021/06/06 04:35:05;;;;;;;6.57;3.80;;;14.60;55.00;;;;;;5076161;28;20591;-80
2021/06/06 04:37:31;;;;;;;6.15;3.45;;;14.60;54.80;;;;;;5071612;28;20019;-80
2021/06/06 04:39:57;;;;;;;6.35;3.35;;;14.50;54.80;;;;;;5075454;28;20028;-80
2021/06/06 04:42:23;;;;;;;5.63;3.33;;;14.60;54.90;;;;;;5076284;28;20114;-80
2021/06/06 04:44:49;;;;;;;5.35;3.65;;;14.60;55.00;;;;;;5075319;28;20062;-80
2021/06/06 04:47:17;;;;;;;5.88;3.67;;;14.50;55.10;;;;;;5075985;28;20052;-79
2021/06/06 04:49:44;;;;;;;5.85;3.90;;;14.50;55.20;;;;;;5073750;28;20071;-79
2021/06/06 04:52:12;;;;;;;5.55;3.70;;;14.50;55.20;;;;;;5067261;28;20046;-79
2021/06/06 04:54:39;;;;;;;5.47;3.67;;;14.50;55.50;;;;;;5061442;28;20028;-79
2021/06/06 04:57:07;;;;;;;6.65;3.47;;;14.50;55.60;;;;;;5073678;28;20028;-79
2021/06/06 04:59:37;;;;;;;4.78;3.35;;;14.50;55.60;;;;;;5068948;28;20039;-80
2021/06/06 05:02:09;;;;;;;6.50;3.55;;;14.50;55.80;;;;;;5067552;28;20212;-80
2021/06/06 05:04:35;;;;;;;7.93;3.95;;;14.40;56.70;;;;;;5073895;28;20104;-79
2021/06/06 05:07:01;;;;;;;8.65;5.75;;;14.40;58.60;;;;;;5071325;28;20025;-79
2021/06/06 05:09:27;;;;;;;11.85;6.50;;;14.40;62.00;;;;;;5075087;28;20023;-79
2021/06/06 05:11:54;;;;;;;9.55;5.00;;;14.40;62.10;;;;;;5069101;28;20045;-79
2021/06/06 05:14:20;;;;;;;8.85;5.07;;;14.40;60.90;;;;;;5072273;28;20024;-80
2021/06/06 05:16:46;;;;;;;7.88;5.53;;;14.40;62.60;;;;;;5074727;28;20063;-80
2021/06/06 05:19:12;;;;;;;9.35;5.68;;;14.40;65.00;;;;;;5077890;28;20025;-79
2021/06/06 05:21:38;;;;;;;8.82;5.88;;;14.40;64.10;;;;;;5065801;28;20090;-80
2021/06/06 05:24:05;;;;;;;8.95;6.57;;;14.40;65.10;;;;;;5068730;28;20017;-80
2021/06/06 05:26:31;;;;;;;11.18;5.97;;;14.40;65.10;;;;;;5067691;28;20027;-80
2021/06/06 05:28:57;;;;;;;10.30;5.88;;;14.40;64.60;;;;;;5070478;28;20099;-80
2021/06/06 05:31:23;;;;;;;10.13;5.82;;;14.40;65.70;;;;;;5068979;28;20052;-80
2021/06/06 05:33:49;;;;;;;8.40;5.65;;;14.40;64.60;;;;;;5066663;28;20060;-80
2021/06/06 05:36:15;;;;;;;8.10;5.60;;;14.40;63.20;;;;;;5075574;28;20032;-80
2021/06/06 05:38:42;;;;;;;9.80;6.38;;;14.50;64.10;;;;;;5063670;28;20043;-79
2021/06/06 05:41:08;;;;;;;10.60;5.88;;;14.50;63.40;;;;;;5078152;28;20032;-79
2021/06/06 05:43:35;;;;;;;9.25;5.30;;;14.50;61.80;;;;;;5068857;28;20543;-80
2021/06/06 05:46:00;;;;;;;9.85;5.57;;;14.60;61.60;;;;;;5068808;28;20028;-79
2021/06/06 05:48:28;;;;;;;12.05;5.75;;;14.60;61.10;;;;;;5064996;28;20016;-79
2021/06/06 05:50:57;;;;;;;9.20;5.50;;;14.60;64.10;;;;;;5073135;28;20080;-80
2021/06/06 05:53:23;;;;;;;8.18;5.40;;;14.60;64.90;;;;;;5066112;28;20052;-80
2021/06/06 05:55:50;;;;;;;9.73;5.90;;;14.60;63.60;;;;;;5069983;28;20028;-80
2021/06/06 05:58:17;;;;;;;8.80;5.40;;;14.70;64.00;;;;;;5075940;28;20063;-80
2021/06/06 06:00:45;;;;;;;11.23;5.60;;;14.60;63.10;;;;;;5068840;28;20063;-80
2021/06/06 06:03:11;;;;;;;8.77;5.13;;;14.70;63.00;;;;;;5072339;28;20031;-80
2021/06/06 06:05:38;;;;;;;8.77;6.13;;;14.70;62.60;;;;;;5065834;28;20020;-79
2021/06/06 06:08:20;;;;;;;8.13;5.03;;;14.80;63.60;;;;;;5076305;28;20024;-79
2021/06/06 06:10:47;;;;;;;10.27;5.13;;;14.80;62.50;;;;;;5074500;28;20047;-79
2021/06/06 06:13:14;;;;;;;8.23;5.07;;;14.80;62.70;;;;;;5076474;28;20025;-79
2021/06/06 06:15:40;;;;;;;8.00;5.45;;;14.80;62.50;;;;;;5077131;28;20107;-79
2021/06/06 06:18:06;;;;;;;9.38;4.90;;;14.90;63.30;;;;;;5066397;28;20028;-79
2021/06/06 06:20:32;;;;;;;9.07;5.50;;;14.90;62.20;;;;;;5064715;28;20028;-79
2021/06/06 06:22:58;;;;;;;9.80;4.97;;;15.00;62.50;;;;;;5070296;28;20028;-79
2021/06/06 06:25:24;;;;;;;7.82;4.28;;;15.00;62.10;;;;;;5070152;28;20375;-79
2021/06/06 06:27:50;;;;;;;8.00;4.72;;;15.00;61.30;;;;;;5069307;28;20021;-80
2021/06/06 06:30:21;;;;;;;8.50;4.38;;;15.00;61.00;;;;;;5074181;28;20021;-80
2021/06/06 06:32:47;;;;;;;7.60;5.23;;;15.00;62.50;;;;;;5066839;28;20106;-80
2021/06/06 06:35:13;;;;;;;6.60;4.47;;;15.10;62.10;;;;;;5073286;28;20278;-80
2021/06/06 06:37:39;;;;;;;7.70;4.35;;;15.10;61.60;;;;;;5069752;28;20044;-80
2021/06/06 06:40:08;;;;;;;9.57;5.07;;;15.20;61.80;;;;;;5065422;28;20029;-80
2021/06/06 06:42:34;;;;;;;7.53;4.50;;;15.20;61.80;;;;;;5067300;28;20074;-80
2021/06/06 06:45:00;;;;;;;5.60;4.07;;;15.30;62.90;;;;;;5073764;28;20028;-80
2021/06/06 06:47:27;;;;;;;7.03;4.00;;;15.40;62.00;;;;;;5070515;28;20021;-81
2021/06/06 06:49:53;;;;;;;9.70;4.82;;;15.50;61.80;;;;;;5066496;28;20027;-80
2021/06/06 06:52:19;;;;;;;7.40;4.57;;;15.70;62.20;;;;;;5064438;28;20017;-81
2021/06/06 06:54:45;;;;;;;14.55;5.22;;;15.90;62.60;;;;;;5065877;28;20071;-81
2021/06/06 06:57:11;;;;;;;9.63;4.93;;;16.20;63.70;;;;;;5072185;28;20104;-81
2021/06/06 06:59:37;;;;;;;7.35;4.25;;;16.50;64.60;;;;;;5061758;28;20039;-81
2021/06/06 07:02:03;;;;;;;8.77;4.85;;;16.90;65.60;;;;;;5062674;28;20048;-81
2021/06/06 07:04:29;;;;;;;7.05;4.63;;;17.50;66.10;;;;;;5069709;28;20033;-81
2021/06/06 07:06:56;;;;;;;11.30;5.07;;;18.10;66.10;;;;;;5073199;28;20038;-81
2021/06/06 07:09:26;;;;;;;9.75;5.07;;;18.60;65.70;;;;;;5068205;28;20095;-81
2021/06/06 07:11:54;;;;;;;9.18;4.75;;;19.10;65.40;;;;;;5068583;28;20024;-81
2021/06/06 07:14:20;;;;;;;8.38;4.70;;;19.60;65.80;;;;;;5062833;28;20398;-81
2021/06/06 07:16:45;;;;;;;11.32;4.88;;;20.20;65.60;;;;;;5070891;28;20039;-81
2021/06/06 07:19:11;;;;;;;9.73;4.85;;;20.80;65.50;;;;;;5067670;28;20077;-81
2021/06/06 07:21:37;;;;;;;8.88;4.68;;;21.30;64.50;;;;;;5074155;28;20027;-81
2021/06/06 07:24:04;;;;;;;6.00;3.90;;;21.80;64.00;;;;;;5071801;28;20479;-81
2021/06/06 07:26:43;;;;;;;8.75;4.00;;;22.30;63.10;;;;;;5068929;28;20013;-81
2021/06/06 07:29:12;;;;;;;7.03;3.28;;;22.80;62.80;;;;;;5069021;28;20566;-81
2021/06/06 07:31:39;;;;;;;8.65;3.85;;;23.30;61.80;;;;;;5064759;28;20090;-81
2021/06/06 07:34:05;;;;;;;5.90;3.25;;;23.70;61.00;;;;;;5072306;28;20041;-81
2021/06/06 07:36:31;;;;;;;6.80;3.90;;;24.10;59.60;;;;;;5064788;28;20387;-81
2021/06/06 07:38:57;;;;;;;7.85;3.78;;;24.50;58.40;;;;;;5067621;28;20047;-81
2021/06/06 07:41:23;;;;;;;5.88;3.10;;;24.80;59.00;;;;;;5066065;28;20028;-82
2021/06/06 07:43:49;;;;;;;8.15;3.10;;;25.10;58.60;;;;;;5075739;28;20065;-81
2021/06/06 07:46:16;;;;;;;8.07;3.28;;;25.40;57.90;;;;;;5066187;28;20602;-81
2021/06/06 07:48:43;;;;;;;6.95;3.00;;;25.70;56.10;;;;;;5073074;28;20129;-81
2021/06/06 07:51:09;;;;;;;7.40;3.03;;;26.00;55.60;;;;;;5062907;28;20012;-81
2021/06/06 07:53:35;;;;;;;8.05;3.08;;;26.30;55.30;;;;;;5071624;28;20023;-82
2021/06/06 07:56:01;;;;;;;6.47;2.90;;;26.60;54.80;;;;;;5061384;28;20528;-81
2021/06/06 07:58:31;;;;;;;7.43;2.97;;;26.90;55.30;;;;;;5066354;28;20052;-82
2021/06/06 08:00:58;;;;;;;5.20;2.33;;;27.10;54.30;;;;;;5066931;28;20081;-82
2021/06/06 08:03:24;;;;;;;5.90;2.60;;;27.40;54.40;;;;;;5073719;28;20067;-82
2021/06/06 08:05:51;;;;;;;6.80;2.30;;;27.70;54.60;;;;;;5067075;28;20730;-82
2021/06/06 08:08:18;;;;;;;7.32;2.63;;;28.00;50.10;;;;;;5069838;28;20044;-82
2021/06/06 08:10:48;;;;;;;5.55;2.20;;;28.20;52.60;;;;;;5062022;28;20044;-82
2021/06/06 08:13:14;;;;;;;5.47;2.58;;;28.40;51.90;;;;;;5068859;28;20029;-82
2021/06/06 08:15:40;;;;;;;7.18;2.42;;;28.70;52.30;;;;;;5059877;28;20041;-81
2021/06/06 08:18:09;;;;;;;8.25;2.40;;;29.00;51.70;;;;;;5067107;28;20036;-81
2021/06/06 08:20:40;;;;;;;7.15;2.20;;;29.20;51.20;;;;;;5064857;28;20013;-81
2021/06/06 08:23:08;;;;;;;5.55;2.55;;;29.50;50.50;;;;;;5073017;28;20032;-81
2021/06/06 08:25:34;;;;;;;6.90;2.58;;;29.60;48.70;;;;;;5062807;28;20021;-81
2021/06/06 08:28:01;;;;;;;7.10;2.53;;;29.90;50.10;;;;;;5064678;28;20020;-81
2021/06/06 08:30:32;;;;;;;5.85;2.17;;;30.10;49.50;;;;;;5066631;28;20443;-82
2021/06/06 08:32:57;;;;;;;6.82;2.58;;;30.40;47.50;;;;;;5074074;28;20048;-82
2021/06/06 08:35:23;;;;;;;5.60;2.25;;;30.60;49.80;;;;;;5072592;28;20082;-82
2021/06/06 08:37:49;;;;;;;5.75;2.42;;;30.90;48.70;;;;;;5075060;28;20028;-82
2021/06/06 08:40:29;;;;;;;7.60;2.42;;;31.10;48.90;;;;;;5073868;28;20372;-82
2021/06/06 08:42:55;;;;;;;6.30;2.60;;;31.30;47.80;;;;;;5065487;28;20433;-81
2021/06/06 08:45:37;;;;;;;8.90;3.10;;;31.50;48.80;;;;;;5072089;28;20028;-82
2021/06/06 08:48:12;;;;;;;9.20;2.80;;;31.70;44.70;;;;;;5069805;28;20020;-83
2021/06/06 08:50:51;;;;;;;7.65;2.42;;;31.90;46.20;;;;;;5069365;28;20028;-83
2021/06/06 08:53:32;;;;;;;5.47;2.22;;;32.10;46.40;;;;;;5072521;28;20025;-83
2021/06/06 08:56:19;;;;;;;7.00;2.40;;;32.30;47.40;;;;;;5067779;28;20514;-82
2021/06/06 08:59:01;;;;;;;6.43;2.10;;;32.60;47.60;;;;;;5065026;28;20037;-77
2021/06/06 09:01:36;;;;;;;6.43;2.65;;;32.90;47.10;;;;;;5087694;28;20054;-79
2021/06/06 09:04:16;;;;;;;6.38;2.83;;;33.20;44.20;;;;;;5067640;28;20024;-82
2021/06/06 09:07:15;;;;;;;8.05;4.72;;;33.40;45.70;;;;;;5071510;28;20024;-81
2021/06/06 09:09:48;;;;;;;6.57;3.20;;;33.60;46.20;;;;;;5071573;28;20510;-76
2021/06/06 09:12:18;;;;;;;10.85;2.67;;;33.80;45.40;;;;;;5079800;28;20045;-76
2021/06/06 09:14:45;;;;;;;27.05;20.98;;;34.10;45.30;;;;;;5062250;28;20024;-76
2021/06/06 09:17:15;;;;;;;12.43;8.45;;;34.40;46.10;;;;;;5065214;28;20033;-80
2021/06/06 09:19:47;;;;;;;7.47;4.60;;;34.70;44.90;;;;;;5067997;28;20029;-79
2021/06/06 09:22:16;;;;;;;11.18;5.65;;;35.00;45.20;;;;;;5063739;28;20028;-78
2021/06/06 09:24:47;;;;;;;48.30;38.28;;;35.20;42.80;;;;;;5072818;28;20036;-77
2021/06/06 09:27:26;;;;;;;67.65;50.45;;;35.40;43.30;;;;;;5062865;28;20100;-78
2021/06/06 09:29:59;;;;;;;12.40;6.25;;;35.60;42.70;;;;;;5064689;28;20021;-76
2021/06/06 09:32:25;;;;;;;5.72;2.15;;;35.60;41.70;;;;;;5068817;28;20731;-82
2021/06/06 09:35:06;;;;;;;9.70;1.90;;;35.50;41.00;;;;;;5046253;28;20050;-82
2021/06/06 09:37:36;;;;;;;4.68;2.10;;;35.40;42.00;;;;;;5051703;28;20032;-77
2021/06/06 09:40:09;;;;;;;6.57;2.25;;;35.60;42.50;;;;;;5048293;28;20079;-79
2021/06/06 09:42:55;;;;;;;5.68;2.05;;;35.80;41.00;;;;;;5056481;28;20025;-77
2021/06/06 09:45:35;;;;;;;5.63;2.40;;;36.10;37.90;;;;;;5053595;28;20048;-78
2021/06/06 09:48:16;;;;;;;6.93;2.28;;;36.30;41.30;;;;;;5062020;28;20075;-88
2021/06/06 09:50:52;;;;;;;6.57;2.40;;;36.50;41.10;;;;;;5065608;28;20032;-83
2021/06/06 09:53:31;;;;;;;5.65;1.98;;;36.80;40.30;;;;;;5062658;28;20021;-82
2021/06/06 09:56:12;;;;;;;6.05;2.10;;;37.10;41.60;;;;;;5080249;28;20017;-83
2021/06/06 09:58:41;;;;;;;5.65;2.20;;;37.50;40.90;;;;;;5062639;28;20032;-75
2021/06/06 10:01:29;;;;;;;5.85;2.08;;;37.80;40.10;;;;;;5062052;28;20032;-80
2021/06/06 10:04:16;;;;;;;6.57;2.33;;;37.90;39.70;;;;;;5053919;28;20048;-72
2021/06/06 10:06:44;;;;;;;7.68;4.50;;;37.60;36.90;;;;;;5058895;28;20051;-71
2021/06/06 10:09:26;;;;;;;8.55;2.92;;;36.80;38.80;;;;;;5056906;28;20091;-75
2021/06/06 10:12:03;;;;;;;7.35;5.00;;;36.20;38.90;;;;;;5055463;28;20510;-72
2021/06/06 10:14:48;;;;;;;6.72;3.17;;;36.20;37.30;;;;;;5057094;28;20037;-71
2021/06/06 10:17:18;;;;;;;5.63;2.10;;;36.00;38.30;;;;;;5079794;28;20074;-72
2021/06/06 10:19:51;;;;;;;27.60;20.20;;;35.80;37.40;;;;;;5067474;28;20499;-72
2021/06/06 10:22:40;;;;;;;8.02;4.90;;;35.50;39.40;;;;;;5056564;28;20656;-70
2021/06/06 10:25:16;;;;;;;7.90;5.05;;;35.60;40.30;;;;;;5055242;28;20056;-70
2021/06/06 10:27:50;;;;;;;7.95;4.20;;;36.00;40.90;;;;;;5052587;28;20131;-71
2021/06/06 10:30:40;;;;;;;12.52;7.85;;;36.50;40.90;;;;;;5061909;28;20500;-72
2021/06/06 10:33:22;;;;;;;27.80;22.67;;;36.60;38.00;;;;;;5061259;28;20072;-71
2021/06/06 10:35:48;;;;;;;;;;;36.10;38.00;;;;;;5078075;28;20021;-70
2021/06/06 10:38:15;;;;;;;127.65;102.22;;;35.40;38.30;;;;;;5071789;28;20346;-70
2021/06/06 10:40:54;;;;;;;75.68;56.10;;;34.80;37.90;;;;;;5073903;28;20040;-71
2021/06/06 10:43:55;;;;;;;212.82;160.73;;;34.20;38.60;;;;;;5078031;28;20032;-72
2021/06/06 10:46:27;;;;;;;83.32;72.13;;;33.70;39.60;;;;;;5067980;28;20399;-69
2021/06/06 10:48:53;;;;;;;46.88;38.15;;;33.60;40.50;;;;;;5076375;28;20111;-69
2021/06/06 10:51:33;;;;;;;16.83;9.93;;;33.60;40.00;;;;;;5074026;28;20116;-69
2021/06/06 10:54:04;;;;;;;9.68;4.40;;;33.30;39.50;;;;;;5075461;28;20039;-69
2021/06/06 10:56:53;;;;;;;6.10;3.50;;;33.00;39.40;;;;;;5073331;28;20028;-69
2021/06/06 10:59:39;;;;;;;5.53;2.53;;;32.70;39.40;;;;;;5071938;28;20032;-69
2021/06/06 11:02:10;;;;;;;5.30;2.15;;;32.30;39.40;;;;;;5077959;28;20039;-69
2021/06/06 11:04:56;;;;;;;7.32;2.90;;;32.00;40.00;;;;;;5076995;28;20025;-69
2021/06/06 11:07:28;;;;;;;5.75;2.45;;;31.80;40.00;;;;;;5077104;28;20028;-70
2021/06/06 11:10:04;;;;;;;;;;;31.70;40.20;;;;;;5068334;28;20037;-69
2021/06/06 11:12:34;;;;;;;5.30;2.60;;;31.50;40.70;;;;;;5067727;28;19978;-68
2021/06/06 11:15:03;;;;;;;5.15;2.30;;;31.40;40.80;;;;;;5063422;28;20029;-69
2021/06/06 11:17:39;;;;;;;6.60;2.90;;;31.10;40.00;;;;;;5076715;28;20047;-68
2021/06/06 11:20:31;;;;;;;6.03;2.60;;;30.90;40.60;;;;;;5076869;28;20493;-70
2021/06/06 11:22:58;;;;;;;5.22;2.63;;;30.70;40.30;;;;;;5074737;28;20099;-71
2021/06/06 11:25:46;;;;;;;7.93;2.53;;;30.40;40.30;;;;;;5073023;28;20103;-69
2021/06/06 11:28:33;;;;;;;5.97;2.35;;;30.20;40.80;;;;;;5076934;28;20021;-69
2021/06/06 11:31:01;;;;;;;4.10;2.10;;;29.90;41.00;;;;;;5076260;28;20415;-69
2021/06/06 11:33:45;;;;;;;6.22;2.50;;;29.70;40.40;;;;;;5077641;28;20044;-70
2021/06/06 11:36:12;;;;;;;4.40;2.15;;;29.60;41.10;;;;;;5078090;28;20020;-81
2021/06/06 11:38:45;;;;;;;4.75;1.92;;;29.40;41.10;;;;;;5078254;28;20145;-82
2021/06/06 11:41:33;;;;;;;6.68;2.25;;;29.20;40.70;;;;;;5078218;28;20158;-82
2021/06/06 11:44:10;;;;;;;5.35;2.00;;;29.10;41.30;;;;;;5078236;28;20031;-82
2021/06/06 11:47:04;;;;;;;5.97;2.10;;;28.90;40.50;;;;;;5064900;28;20017;-82
2021/06/06 11:49:49;;;;;;;8.57;2.05;;;28.90;41.80;;;;;;5077876;28;20024;-82
2021/06/06 11:52:35;;;;;;;5.80;2.05;;;28.80;42.00;;;;;;5078077;28;20025;-82
2021/06/06 11:55:07;;;;;;;7.05;2.13;;;28.80;42.00;;;;;;5078025;28;20032;-82
2021/06/06 11:57:38;;;;;;;6.32;2.25;;;28.90;42.50;;;;;;5077708;28;20016;-82
2021/06/06 12:00:20;;;;;;;5.60;2.50;;;28.90;42.40;;;;;;5076388;28;20041;-82
2021/06/06 12:02:46;;;;;;;5.15;2.30;;;28.90;42.60;;;;;;5077436;28;20028;-77
2021/06/06 12:05:29;;;;;;;4.90;2.08;;;29.00;42.50;;;;;;5076772;28;20068;-79
2021/06/06 12:08:06;;;;;;;6.20;2.22;;;29.00;42.90;;;;;;5077773;28;20023;-81
2021/06/06 12:10:36;;;;;;;4.63;1.98;;;29.00;43.00;;;;;;5075891;28;20035;-81
2021/06/06 12:13:05;;;;;;;5.97;1.88;;;29.00;42.60;;;;;;5077605;28;20034;-82
2021/06/06 12:15:35;;;;;;;5.68;1.83;;;29.00;42.60;;;;;;5077404;28;20052;-82
2021/06/06 12:18:09;;;;;;;5.80;2.20;;;29.00;41.30;;;;;;5077622;28;20029;-79
2021/06/06 12:20:47;;;;;;;7.28;2.38;;;28.90;41.40;;;;;;5077441;28;20020;-81
2021/06/06 12:23:12;;;;;;;7.18;2.63;;;28.60;40.60;;;;;;5078185;28;20047;-83
2021/06/06 12:25:38;;;;;;;8.73;2.92;;;28.50;42.10;;;;;;5078102;28;20028;-80
2021/06/06 12:28:18;;;;;;;5.50;2.15;;;28.40;42.80;;;;;;5078728;28;20021;-74
2021/06/06 12:30:50;;;;;;;4.93;2.30;;;28.30;43.00;;;;;;5078488;28;20035;-76
2021/06/06 12:33:24;;;;;;;5.43;2.17;;;28.30;42.90;;;;;;5076832;28;20120;-76
2021/06/06 12:35:53;;;;;;;4.88;2.10;;;28.20;42.10;;;;;;5077525;28;20024;-78
2021/06/06 12:38:22;;;;;;;6.60;2.53;;;28.10;43.40;;;;;;5077485;28;20028;-76
2021/06/06 12:40:49;;;;;;;6.90;2.33;;;28.10;43.20;;;;;;5077420;28;20076;-77
2021/06/06 12:43:21;;;;;;;5.15;2.30;;;28.10;43.00;;;;;;5077013;28;20013;-77
2021/06/06 12:45:48;;;;;;;4.45;2.03;;;28.00;42.70;;;;;;5071611;28;20385;-77
2021/06/06 12:48:32;;;;;;;6.88;2.20;;;27.90;43.00;;;;;;5072096;28;20025;-78
2021/06/06 12:51:00;;;;;;;7.40;2.72;;;27.90;43.10;;;;;;5068062;28;20020;-76
2021/06/06 12:53:34;;;;;;;5.72;2.10;;;27.90;43.50;;;;;;5076796;28;20120;-76
2021/06/06 12:56:11;;;;;;;4.90;2.17;;;27.80;42.60;;;;;;5077262;28;20033;-82
2021/06/06 12:58:39;;;;;;;5.00;2.45;;;27.70;43.40;;;;;;5078943;28;20016;-80
2021/06/06 13:01:21;;;;;;;5.93;2.30;;;27.60;43.30;;;;;;5077382;28;20104;-77
2021/06/06 13:03:48;;;;;;;4.43;2.30;;;27.50;43.30;;;;;;5077780;28;20056;-78
2021/06/06 13:06:36;;;;;;;5.85;2.45;;;27.40;43.50;;;;;;5077670;28;20029;-77